sensor_id;sensor_type;location;lat;lon;timestamp;P1;durP1;ratioP1;P2;durP2;ratioP2
54125;SDS011;40360;52.992;6.796;2023-03-31T00:01:58;23.73;;;6.28;;
54125;SDS011;40360;52.992;6.796;2023-03-31T00:04:26;30.60;;;5.80;;
54125;SDS011;40360;52.992;6.796;2023-03-31T00:06:52;29.27;;;7.05;;
54125;SDS011;40360;52.992;6.796;2023-03-31T00:09:19;27.77;;;5.82;;
54125;SDS011;40360;52.992;6.796;2023-03-31T00:11:48;23.20;;;6.10;;
54125;SDS011;40360;52.992;6.796;2023-03-31T00:14:15;31.48;;;7.03;;
54125;SDS011;40360;52.992;6.796;2023-03-31T00:16:43;30.50;;;6.10;;
54125;SDS011;40360;52.992;6.796;2023-03-31T00:19:09;21.60;;;5.40;;
54125;SDS011;40360;52.992;6.796;2023-03-31T00:21:45;25.70;;;5.88;;
54125;SDS011;40360;52.992;6.796;2023-03-31T00:24:11;16.75;;;4.05;;
54125;SDS011;40360;52.992;6.796;2023-03-31T00:26:38;29.13;;;5.63;;
54125;SDS011;40360;52.992;6.796;2023-03-31T00:29:05;23.42;;;6.30;;
54125;SDS011;40360;52.992;6.796;2023-03-31T00:31:32;20.08;;;5.25;;
54125;SDS011;40360;52.992;6.796;2023-03-31T00:33:57;25.00;;;5.47;;
54125;SDS011;40360;52.992;6.796;2023-03-31T00:36:23;22.10;;;5.65;;
54125;SDS011;40360;52.992;6.796;2023-03-31T00:38:53;19.42;;;4.55;;
54125;SDS011;40360;52.992;6.796;2023-03-31T00:41:27;22.35;;;5.22;;
54125;SDS011;40360;52.992;6.796;2023-03-31T00:44:00;21.33;;;5.82;;
54125;SDS011;40360;52.992;6.796;2023-03-31T00:47:17;23.73;;;4.75;;
54125;SDS011;40360;52.992;6.796;2023-03-31T00:49:26;25.27;;;5.15;;
54125;SDS011;40360;52.992;6.796;2023-03-31T00:52:03;24.83;;;5.60;;
54125;SDS011;40360;52.992;6.796;2023-03-31T00:54:38;21.52;;;5.10;;
54125;SDS011;40360;52.992;6.796;2023-03-31T00:57:07;23.42;;;5.68;;
54125;SDS011;40360;52.992;6.796;2023-03-31T00:59:37;22.85;;;5.20;;
54125;SDS011;40360;52.992;6.796;2023-03-31T01:02:07;18.60;;;4.82;;
54125;SDS011;40360;52.992;6.796;2023-03-31T01:04:34;27.13;;;5.72;;
54125;SDS011;40360;52.992;6.796;2023-03-31T01:07:45;20.13;;;4.75;;
54125;SDS011;40360;52.992;6.796;2023-03-31T01:09:59;25.63;;;5.65;;
54125;SDS011;40360;52.992;6.796;2023-03-31T01:12:27;27.52;;;6.15;;
54125;SDS011;40360;52.992;6.796;2023-03-31T01:14:53;17.13;;;5.25;;
54125;SDS011;40360;52.992;6.796;2023-03-31T01:17:20;23.38;;;5.28;;
54125;SDS011;40360;52.992;6.796;2023-03-31T01:24:54;23.55;;;5.72;;
54125;SDS011;40360;52.992;6.796;2023-03-31T01:27:56;24.85;;;5.45;;
54125;SDS011;40360;52.992;6.796;2023-03-31T01:40:01;20.70;;;4.57;;
54125;SDS011;40360;52.992;6.796;2023-03-31T01:45:09;20.10;;;4.85;;
54125;SDS011;40360;52.992;6.796;2023-03-31T01:47:48;18.85;;;4.60;;
54125;SDS011;40360;52.992;6.796;2023-03-31T01:50:29;19.73;;;6.75;;
54125;SDS011;40360;52.992;6.796;2023-03-31T01:55:48;24.60;;;4.85;;
54125;SDS011;40360;52.992;6.796;2023-03-31T01:58:31;18.30;;;4.22;;
54125;SDS011;40360;52.992;6.796;2023-03-31T02:01:46;25.77;;;5.45;;
54125;SDS011;40360;52.992;6.796;2023-03-31T02:04:11;20.75;;;4.95;;
54125;SDS011;40360;52.992;6.796;2023-03-31T02:06:43;16.52;;;3.58;;
54125;SDS011;40360;52.992;6.796;2023-03-31T02:09:16;20.58;;;5.47;;
54125;SDS011;40360;52.992;6.796;2023-03-31T02:11:47;27.85;;;5.18;;
54125;SDS011;40360;52.992;6.796;2023-03-31T02:14:16;14.38;;;4.65;;
54125;SDS011;40360;52.992;6.796;2023-03-31T02:16:46;27.73;;;5.55;;
54125;SDS011;40360;52.992;6.796;2023-03-31T02:19:16;23.70;;;4.70;;
54125;SDS011;40360;52.992;6.796;2023-03-31T02:21:46;21.27;;;5.97;;
54125;SDS011;40360;52.992;6.796;2023-03-31T02:24:14;17.40;;;4.47;;
54125;SDS011;40360;52.992;6.796;2023-03-31T02:26:44;22.13;;;5.80;;
54125;SDS011;40360;52.992;6.796;2023-03-31T02:29:17;23.50;;;4.97;;
54125;SDS011;40360;52.992;6.796;2023-03-31T02:31:48;15.63;;;4.43;;
54125;SDS011;40360;52.992;6.796;2023-03-31T02:34:24;15.50;;;4.25;;
54125;SDS011;40360;52.992;6.796;2023-03-31T02:36:50;15.98;;;4.75;;
54125;SDS011;40360;52.992;6.796;2023-03-31T02:39:17;22.80;;;5.28;;
54125;SDS011;40360;52.992;6.796;2023-03-31T02:41:45;18.92;;;5.40;;
54125;SDS011;40360;52.992;6.796;2023-03-31T02:44:11;17.83;;;7.15;;
54125;SDS011;40360;52.992;6.796;2023-03-31T02:46:37;17.98;;;5.32;;
54125;SDS011;40360;52.992;6.796;2023-03-31T02:49:04;13.82;;;4.28;;
54125;SDS011;40360;52.992;6.796;2023-03-31T03:00:20;17.45;;;4.38;;
54125;SDS011;40360;52.992;6.796;2023-03-31T03:06:03;17.55;;;5.00;;
54125;SDS011;40360;52.992;6.796;2023-03-31T03:11:26;17.85;;;5.57;;
54125;SDS011;40360;52.992;6.796;2023-03-31T03:14:08;16.30;;;5.13;;
54125;SDS011;40360;52.992;6.796;2023-03-31T03:19:51;20.02;;;5.72;;
54125;SDS011;40360;52.992;6.796;2023-03-31T03:22:19;13.25;;;4.50;;
54125;SDS011;40360;52.992;6.796;2023-03-31T03:24:44;12.15;;;4.57;;
54125;SDS011;40360;52.992;6.796;2023-03-31T03:27:10;14.23;;;5.25;;
54125;SDS011;40360;52.992;6.796;2023-03-31T03:29:36;13.73;;;4.28;;
54125;SDS011;40360;52.992;6.796;2023-03-31T03:32:01;15.25;;;5.10;;
54125;SDS011;40360;52.992;6.796;2023-03-31T03:34:27;15.32;;;4.78;;
54125;SDS011;40360;52.992;6.796;2023-03-31T03:36:52;15.40;;;4.55;;
54125;SDS011;40360;52.992;6.796;2023-03-31T03:39:18;18.13;;;4.95;;
54125;SDS011;40360;52.992;6.796;2023-03-31T03:41:44;12.30;;;4.82;;
54125;SDS011;40360;52.992;6.796;2023-03-31T03:44:10;19.67;;;5.78;;
54125;SDS011;40360;52.992;6.796;2023-03-31T03:46:36;13.43;;;4.35;;
54125;SDS011;40360;52.992;6.796;2023-03-31T03:49:02;17.77;;;5.70;;
54125;SDS011;40360;52.992;6.796;2023-03-31T03:51:28;16.63;;;6.25;;
54125;SDS011;40360;52.992;6.796;2023-03-31T03:53:53;19.15;;;6.15;;
54125;SDS011;40360;52.992;6.796;2023-03-31T03:56:19;18.42;;;5.13;;
54125;SDS011;40360;52.992;6.796;2023-03-31T03:58:46;11.70;;;4.60;;
54125;SDS011;40360;52.992;6.796;2023-03-31T04:01:12;13.90;;;5.45;;
54125;SDS011;40360;52.992;6.796;2023-03-31T04:03:38;15.68;;;4.90;;
54125;SDS011;40360;52.992;6.796;2023-03-31T04:06:04;10.00;;;4.88;;
54125;SDS011;40360;52.992;6.796;2023-03-31T04:08:30;13.70;;;5.18;;
54125;SDS011;40360;52.992;6.796;2023-03-31T04:10:55;14.10;;;5.80;;
54125;SDS011;40360;52.992;6.796;2023-03-31T04:13:21;14.70;;;4.50;;
54125;SDS011;40360;52.992;6.796;2023-03-31T04:15:46;14.07;;;5.70;;
54125;SDS011;40360;52.992;6.796;2023-03-31T04:18:12;18.65;;;6.10;;
54125;SDS011;40360;52.992;6.796;2023-03-31T04:20:47;13.57;;;5.32;;
54125;SDS011;40360;52.992;6.796;2023-03-31T04:23:37;16.45;;;5.22;;
54125;SDS011;40360;52.992;6.796;2023-03-31T04:26:13;10.77;;;4.30;;
54125;SDS011;40360;52.992;6.796;2023-03-31T04:28:40;11.82;;;4.63;;
54125;SDS011;40360;52.992;6.796;2023-03-31T04:31:14;11.10;;;5.75;;
54125;SDS011;40360;52.992;6.796;2023-03-31T04:33:52;10.60;;;5.55;;
54125;SDS011;40360;52.992;6.796;2023-03-31T04:36:19;11.30;;;4.97;;
54125;SDS011;40360;52.992;6.796;2023-03-31T04:38:46;14.35;;;5.72;;
54125;SDS011;40360;52.992;6.796;2023-03-31T04:41:15;11.77;;;5.80;;
54125;SDS011;40360;52.992;6.796;2023-03-31T04:43:41;13.57;;;5.55;;
54125;SDS011;40360;52.992;6.796;2023-03-31T04:46:07;13.02;;;5.35;;
54125;SDS011;40360;52.992;6.796;2023-03-31T04:48:33;16.52;;;6.72;;
54125;SDS011;40360;52.992;6.796;2023-03-31T04:50:59;12.27;;;5.93;;
54125;SDS011;40360;52.992;6.796;2023-03-31T04:53:25;13.20;;;5.50;;
54125;SDS011;40360;52.992;6.796;2023-03-31T04:55:51;13.30;;;5.63;;
54125;SDS011;40360;52.992;6.796;2023-03-31T04:58:17;19.70;;;7.15;;
54125;SDS011;40360;52.992;6.796;2023-03-31T05:00:42;14.60;;;6.28;;
54125;SDS011;40360;52.992;6.796;2023-03-31T05:03:08;16.10;;;5.68;;
54125;SDS011;40360;52.992;6.796;2023-03-31T05:05:34;14.65;;;5.63;;
54125;SDS011;40360;52.992;6.796;2023-03-31T05:08:00;14.80;;;5.38;;
54125;SDS011;40360;52.992;6.796;2023-03-31T05:10:27;13.90;;;5.75;;
54125;SDS011;40360;52.992;6.796;2023-03-31T05:12:53;15.93;;;5.40;;
54125;SDS011;40360;52.992;6.796;2023-03-31T05:15:18;13.85;;;5.45;;
54125;SDS011;40360;52.992;6.796;2023-03-31T05:17:44;16.08;;;5.43;;
54125;SDS011;40360;52.992;6.796;2023-03-31T05:20:10;11.90;;;5.40;;
54125;SDS011;40360;52.992;6.796;2023-03-31T05:22:37;11.45;;;5.25;;
54125;SDS011;40360;52.992;6.796;2023-03-31T05:25:04;12.18;;;5.38;;
54125;SDS011;40360;52.992;6.796;2023-03-31T05:27:31;13.43;;;5.40;;
54125;SDS011;40360;52.992;6.796;2023-03-31T05:29:58;14.43;;;4.43;;
54125;SDS011;40360;52.992;6.796;2023-03-31T05:32:24;13.10;;;5.15;;
54125;SDS011;40360;52.992;6.796;2023-03-31T05:34:51;14.70;;;5.57;;
54125;SDS011;40360;52.992;6.796;2023-03-31T05:37:21;16.27;;;6.63;;
54125;SDS011;40360;52.992;6.796;2023-03-31T05:39:48;12.43;;;5.10;;
54125;SDS011;40360;52.992;6.796;2023-03-31T05:42:14;12.73;;;5.50;;
54125;SDS011;40360;52.992;6.796;2023-03-31T06:02:00;14.40;;;5.85;;
54125;SDS011;40360;52.992;6.796;2023-03-31T06:04:27;15.98;;;5.75;;
54125;SDS011;40360;52.992;6.796;2023-03-31T06:06:53;13.13;;;5.97;;
54125;SDS011;40360;52.992;6.796;2023-03-31T06:09:20;14.63;;;6.25;;
54125;SDS011;40360;52.992;6.796;2023-03-31T06:11:45;13.38;;;5.82;;
54125;SDS011;40360;52.992;6.796;2023-03-31T06:14:11;10.82;;;5.85;;
54125;SDS011;40360;52.992;6.796;2023-03-31T06:16:37;12.50;;;5.80;;
54125;SDS011;40360;52.992;6.796;2023-03-31T06:19:02;10.88;;;5.53;;
54125;SDS011;40360;52.992;6.796;2023-03-31T06:21:28;12.68;;;5.18;;
54125;SDS011;40360;52.992;6.796;2023-03-31T06:23:54;15.02;;;6.10;;
54125;SDS011;40360;52.992;6.796;2023-03-31T06:26:22;8.82;;;5.15;;
54125;SDS011;40360;52.992;6.796;2023-03-31T06:28:48;11.63;;;5.90;;
54125;SDS011;40360;52.992;6.796;2023-03-31T06:31:15;8.20;;;4.78;;
54125;SDS011;40360;52.992;6.796;2023-03-31T06:33:42;11.32;;;5.07;;
54125;SDS011;40360;52.992;6.796;2023-03-31T06:36:09;11.77;;;5.72;;
54125;SDS011;40360;52.992;6.796;2023-03-31T06:38:37;12.40;;;6.43;;
54125;SDS011;40360;52.992;6.796;2023-03-31T06:41:03;8.30;;;4.82;;
54125;SDS011;40360;52.992;6.796;2023-03-31T06:43:30;9.35;;;4.90;;
54125;SDS011;40360;52.992;6.796;2023-03-31T06:45:56;10.70;;;4.95;;
54125;SDS011;40360;52.992;6.796;2023-03-31T06:48:22;8.80;;;5.05;;
54125;SDS011;40360;52.992;6.796;2023-03-31T06:50:49;10.02;;;4.60;;
54125;SDS011;40360;52.992;6.796;2023-03-31T06:53:16;12.40;;;5.30;;
54125;SDS011;40360;52.992;6.796;2023-03-31T06:55:42;10.93;;;5.43;;
54125;SDS011;40360;52.992;6.796;2023-03-31T06:58:07;11.68;;;4.95;;
54125;SDS011;40360;52.992;6.796;2023-03-31T07:00:33;11.30;;;4.88;;
54125;SDS011;40360;52.992;6.796;2023-03-31T07:02:59;7.75;;;4.45;;
54125;SDS011;40360;52.992;6.796;2023-03-31T07:05:26;14.68;;;4.97;;
54125;SDS011;40360;52.992;6.796;2023-03-31T07:07:56;13.05;;;5.10;;
54125;SDS011;40360;52.992;6.796;2023-03-31T07:10:23;11.85;;;4.90;;
54125;SDS011;40360;52.992;6.796;2023-03-31T07:12:51;11.70;;;5.70;;
54125;SDS011;40360;52.992;6.796;2023-03-31T07:15:16;10.35;;;4.93;;
54125;SDS011;40360;52.992;6.796;2023-03-31T07:17:42;10.95;;;5.10;;
54125;SDS011;40360;52.992;6.796;2023-03-31T07:20:09;13.82;;;4.55;;
54125;SDS011;40360;52.992;6.796;2023-03-31T07:22:41;12.30;;;5.22;;
54125;SDS011;40360;52.992;6.796;2023-03-31T07:25:08;13.68;;;5.80;;
54125;SDS011;40360;52.992;6.796;2023-03-31T07:27:35;12.45;;;6.53;;
54125;SDS011;40360;52.992;6.796;2023-03-31T07:30:05;11.38;;;5.28;;
54125;SDS011;40360;52.992;6.796;2023-03-31T07:32:31;10.52;;;5.72;;
54125;SDS011;40360;52.992;6.796;2023-03-31T07:34:57;12.95;;;5.30;;
54125;SDS011;40360;52.992;6.796;2023-03-31T07:37:23;9.00;;;4.68;;
54125;SDS011;40360;52.992;6.796;2023-03-31T07:39:50;9.13;;;4.07;;
54125;SDS011;40360;52.992;6.796;2023-03-31T07:42:15;9.38;;;4.70;;
54125;SDS011;40360;52.992;6.796;2023-03-31T07:44:41;10.55;;;5.53;;
54125;SDS011;40360;52.992;6.796;2023-03-31T07:47:07;12.23;;;3.85;;
54125;SDS011;40360;52.992;6.796;2023-03-31T07:49:34;7.88;;;4.22;;
54125;SDS011;40360;52.992;6.796;2023-03-31T07:52:00;10.95;;;4.32;;
54125;SDS011;40360;52.992;6.796;2023-03-31T07:54:26;10.52;;;4.38;;
54125;SDS011;40360;52.992;6.796;2023-03-31T07:56:55;13.95;;;5.07;;
54125;SDS011;40360;52.992;6.796;2023-03-31T07:59:21;8.20;;;4.68;;
54125;SDS011;40360;52.992;6.796;2023-03-31T08:01:47;10.40;;;4.10;;
54125;SDS011;40360;52.992;6.796;2023-03-31T08:04:13;11.07;;;5.07;;
54125;SDS011;40360;52.992;6.796;2023-03-31T08:06:38;9.13;;;4.65;;
54125;SDS011;40360;52.992;6.796;2023-03-31T08:09:04;12.57;;;4.15;;
54125;SDS011;40360;52.992;6.796;2023-03-31T08:11:33;7.20;;;4.18;;
54125;SDS011;40360;52.992;6.796;2023-03-31T08:14:00;11.18;;;4.55;;
54125;SDS011;40360;52.992;6.796;2023-03-31T08:16:26;11.23;;;5.65;;
54125;SDS011;40360;52.992;6.796;2023-03-31T08:18:51;12.75;;;5.57;;
54125;SDS011;40360;52.992;6.796;2023-03-31T08:21:17;11.18;;;4.45;;
54125;SDS011;40360;52.992;6.796;2023-03-31T08:23:42;13.30;;;5.25;;
54125;SDS011;40360;52.992;6.796;2023-03-31T08:26:12;13.63;;;5.15;;
54125;SDS011;40360;52.992;6.796;2023-03-31T08:28:43;8.80;;;4.90;;
54125;SDS011;40360;52.992;6.796;2023-03-31T08:31:10;11.77;;;5.10;;
54125;SDS011;40360;52.992;6.796;2023-03-31T08:33:36;9.88;;;4.80;;
54125;SDS011;40360;52.992;6.796;2023-03-31T08:36:04;11.77;;;4.65;;
54125;SDS011;40360;52.992;6.796;2023-03-31T08:38:34;12.23;;;4.88;;
54125;SDS011;40360;52.992;6.796;2023-03-31T08:41:06;14.50;;;4.65;;
54125;SDS011;40360;52.992;6.796;2023-03-31T08:43:45;9.20;;;4.80;;
54125;SDS011;40360;52.992;6.796;2023-03-31T08:46:13;13.63;;;4.10;;
54125;SDS011;40360;52.992;6.796;2023-03-31T08:48:44;16.83;;;5.07;;
54125;SDS011;40360;52.992;6.796;2023-03-31T08:51:16;13.13;;;4.57;;
54125;SDS011;40360;52.992;6.796;2023-03-31T08:54:02;11.45;;;4.80;;
54125;SDS011;40360;52.992;6.796;2023-03-31T08:56:35;12.23;;;4.43;;
54125;SDS011;40360;52.992;6.796;2023-03-31T08:59:06;12.18;;;4.32;;
54125;SDS011;40360;52.992;6.796;2023-03-31T09:04:22;10.95;;;4.15;;
54125;SDS011;40360;52.992;6.796;2023-03-31T09:07:33;15.98;;;4.18;;
54125;SDS011;40360;52.992;6.796;2023-03-31T09:13:38;10.05;;;4.43;;
54125;SDS011;40360;52.992;6.796;2023-03-31T09:16:35;7.85;;;3.50;;
54125;SDS011;40360;52.992;6.796;2023-03-31T09:19:11;12.55;;;4.32;;
54125;SDS011;40360;52.992;6.796;2023-03-31T09:21:42;9.77;;;4.13;;
54125;SDS011;40360;52.992;6.796;2023-03-31T09:24:14;11.82;;;3.90;;
54125;SDS011;40360;52.992;6.796;2023-03-31T09:26:57;10.98;;;4.05;;
54125;SDS011;40360;52.992;6.796;2023-03-31T09:32:34;9.27;;;3.60;;
54125;SDS011;40360;52.992;6.796;2023-03-31T09:35:13;10.57;;;4.55;;
54125;SDS011;40360;52.992;6.796;2023-03-31T09:37:40;13.43;;;4.60;;
54125;SDS011;40360;52.992;6.796;2023-03-31T09:40:06;10.43;;;4.03;;
54125;SDS011;40360;52.992;6.796;2023-03-31T09:42:33;10.32;;;4.00;;
54125;SDS011;40360;52.992;6.796;2023-03-31T09:45:00;10.68;;;3.70;;
54125;SDS011;40360;52.992;6.796;2023-03-31T09:47:28;12.43;;;4.25;;
54125;SDS011;40360;52.992;6.796;2023-03-31T09:49:59;7.63;;;3.58;;
54125;SDS011;40360;52.992;6.796;2023-03-31T09:54:55;11.80;;;4.07;;
54125;SDS011;40360;52.992;6.796;2023-03-31T09:57:32;6.53;;;3.50;;
54125;SDS011;40360;52.992;6.796;2023-03-31T10:00:04;9.52;;;3.40;;
54125;SDS011;40360;52.992;6.796;2023-03-31T10:02:43;6.85;;;2.97;;
54125;SDS011;40360;52.992;6.796;2023-03-31T10:10:50;7.68;;;3.13;;
54125;SDS011;40360;52.992;6.796;2023-03-31T10:13:24;10.25;;;2.50;;
54125;SDS011;40360;52.992;6.796;2023-03-31T10:15:53;5.20;;;2.45;;
54125;SDS011;40360;52.992;6.796;2023-03-31T10:18:36;4.97;;;2.40;;
54125;SDS011;40360;52.992;6.796;2023-03-31T10:21:04;5.93;;;3.35;;
54125;SDS011;40360;52.992;6.796;2023-03-31T10:23:32;5.97;;;2.28;;
54125;SDS011;40360;52.992;6.796;2023-03-31T10:26:00;7.28;;;3.10;;
54125;SDS011;40360;52.992;6.796;2023-03-31T10:28:30;7.32;;;2.50;;
54125;SDS011;40360;52.992;6.796;2023-03-31T10:30:57;4.47;;;2.30;;
54125;SDS011;40360;52.992;6.796;2023-03-31T10:33:31;3.80;;;2.03;;
54125;SDS011;40360;52.992;6.796;2023-03-31T10:35:59;4.65;;;2.05;;
54125;SDS011;40360;52.992;6.796;2023-03-31T10:38:35;5.97;;;2.60;;
54125;SDS011;40360;52.992;6.796;2023-03-31T10:41:06;5.22;;;2.50;;
54125;SDS011;40360;52.992;6.796;2023-03-31T10:46:05;6.70;;;2.85;;
54125;SDS011;40360;52.992;6.796;2023-03-31T10:48:32;9.13;;;3.28;;
54125;SDS011;40360;52.992;6.796;2023-03-31T10:51:24;7.32;;;2.88;;
54125;SDS011;40360;52.992;6.796;2023-03-31T10:53:53;3.50;;;2.58;;
54125;SDS011;40360;52.992;6.796;2023-03-31T11:05:23;6.18;;;2.50;;
54125;SDS011;40360;52.992;6.796;2023-03-31T11:10:48;5.82;;;2.83;;
54125;SDS011;40360;52.992;6.796;2023-03-31T11:16:38;4.97;;;2.25;;
54125;SDS011;40360;52.992;6.796;2023-03-31T11:22:11;4.90;;;2.13;;
54125;SDS011;40360;52.992;6.796;2023-03-31T11:30:38;7.15;;;2.92;;
54125;SDS011;40360;52.992;6.796;2023-03-31T11:41:49;8.48;;;2.80;;
54125;SDS011;40360;52.992;6.796;2023-03-31T11:44:19;10.90;;;2.70;;
54125;SDS011;40360;52.992;6.796;2023-03-31T11:51:56;7.97;;;2.75;;
54125;SDS011;40360;52.992;6.796;2023-03-31T11:54:36;6.75;;;2.55;;
54125;SDS011;40360;52.992;6.796;2023-03-31T11:57:12;7.95;;;3.13;;
54125;SDS011;40360;52.992;6.796;2023-03-31T11:59:42;6.63;;;2.55;;
54125;SDS011;40360;52.992;6.796;2023-03-31T12:02:15;6.95;;;2.30;;
54125;SDS011;40360;52.992;6.796;2023-03-31T12:04:47;7.53;;;2.55;;
54125;SDS011;40360;52.992;6.796;2023-03-31T12:07:29;7.63;;;2.97;;
54125;SDS011;40360;52.992;6.796;2023-03-31T12:12:42;8.57;;;3.45;;
54125;SDS011;40360;52.992;6.796;2023-03-31T12:18:08;10.13;;;3.35;;
54125;SDS011;40360;52.992;6.796;2023-03-31T12:20:57;6.18;;;3.30;;
54125;SDS011;40360;52.992;6.796;2023-03-31T12:23:27;10.02;;;3.90;;
54125;SDS011;40360;52.992;6.796;2023-03-31T12:29:05;9.30;;;3.83;;
54125;SDS011;40360;52.992;6.796;2023-03-31T12:31:39;9.57;;;3.75;;
54125;SDS011;40360;52.992;6.796;2023-03-31T12:34:10;9.60;;;3.60;;
54125;SDS011;40360;52.992;6.796;2023-03-31T12:39:27;7.30;;;3.50;;
54125;SDS011;40360;52.992;6.796;2023-03-31T12:42:28;9.77;;;4.40;;
54125;SDS011;40360;52.992;6.796;2023-03-31T12:50:37;9.63;;;3.42;;
54125;SDS011;40360;52.992;6.796;2023-03-31T12:57:00;11.07;;;3.53;;
54125;SDS011;40360;52.992;6.796;2023-03-31T12:59:28;10.45;;;3.03;;
54125;SDS011;40360;52.992;6.796;2023-03-31T13:02:18;11.18;;;4.10;;
54125;SDS011;40360;52.992;6.796;2023-03-31T13:04:47;7.38;;;3.10;;
54125;SDS011;40360;52.992;6.796;2023-03-31T13:12:52;8.40;;;3.15;;
54125;SDS011;40360;52.992;6.796;2023-03-31T13:15:28;12.73;;;2.88;;
54125;SDS011;40360;52.992;6.796;2023-03-31T13:17:57;6.63;;;2.63;;
54125;SDS011;40360;52.992;6.796;2023-03-31T13:23:02;10.25;;;3.17;;
54125;SDS011;40360;52.992;6.796;2023-03-31T13:27:54;9.40;;;3.28;;
54125;SDS011;40360;52.992;6.796;2023-03-31T13:33:04;9.18;;;3.58;;
54125;SDS011;40360;52.992;6.796;2023-03-31T13:35:52;12.25;;;4.25;;
54125;SDS011;40360;52.992;6.796;2023-03-31T13:47:09;10.68;;;4.18;;
54125;SDS011;40360;52.992;6.796;2023-03-31T13:58:33;7.53;;;2.63;;
54125;SDS011;40360;52.992;6.796;2023-03-31T14:06:53;11.35;;;3.75;;
54125;SDS011;40360;52.992;6.796;2023-03-31T14:09:29;12.63;;;3.95;;
54125;SDS011;40360;52.992;6.796;2023-03-31T14:12:21;9.68;;;3.00;;
54125;SDS011;40360;52.992;6.796;2023-03-31T14:14:55;15.73;;;3.70;;
54125;SDS011;40360;52.992;6.796;2023-03-31T14:17:26;15.27;;;3.70;;
54125;SDS011;40360;52.992;6.796;2023-03-31T14:20:09;9.15;;;2.70;;
54125;SDS011;40360;52.992;6.796;2023-03-31T14:36:36;7.85;;;2.10;;
54125;SDS011;40360;52.992;6.796;2023-03-31T14:39:22;5.53;;;2.35;;
54125;SDS011;40360;52.992;6.796;2023-03-31T14:41:52;8.25;;;2.08;;
54125;SDS011;40360;52.992;6.796;2023-03-31T14:44:18;6.45;;;1.50;;
54125;SDS011;40360;52.992;6.796;2023-03-31T14:46:44;4.55;;;1.75;;
54125;SDS011;40360;52.992;6.796;2023-03-31T14:51:44;7.47;;;1.73;;
54125;SDS011;40360;52.992;6.796;2023-03-31T14:54:14;6.30;;;1.67;;
54125;SDS011;40360;52.992;6.796;2023-03-31T14:56:42;7.40;;;1.52;;
54125;SDS011;40360;52.992;6.796;2023-03-31T14:59:17;4.97;;;2.00;;
54125;SDS011;40360;52.992;6.796;2023-03-31T15:01:49;5.43;;;2.05;;
54125;SDS011;40360;52.992;6.796;2023-03-31T15:04:17;6.13;;;1.95;;
54125;SDS011;40360;52.992;6.796;2023-03-31T15:06:46;11.02;;;2.97;;
54125;SDS011;40360;52.992;6.796;2023-03-31T15:09:22;7.53;;;1.95;;
54125;SDS011;40360;52.992;6.796;2023-03-31T15:11:55;4.35;;;1.58;;
54125;SDS011;40360;52.992;6.796;2023-03-31T15:14:27;9.32;;;2.42;;
54125;SDS011;40360;52.992;6.796;2023-03-31T15:16:59;7.30;;;3.10;;
54125;SDS011;40360;52.992;6.796;2023-03-31T15:19:26;10.98;;;3.03;;
54125;SDS011;40360;52.992;6.796;2023-03-31T15:21:59;10.02;;;2.90;;
54125;SDS011;40360;52.992;6.796;2023-03-31T15:24:38;9.02;;;2.80;;
54125;SDS011;40360;52.992;6.796;2023-03-31T15:27:08;11.77;;;3.30;;
54125;SDS011;40360;52.992;6.796;2023-03-31T15:32:54;8.13;;;2.47;;
54125;SDS011;40360;52.992;6.796;2023-03-31T15:35:01;7.55;;;2.10;;
54125;SDS011;40360;52.992;6.796;2023-03-31T15:37:29;8.00;;;2.35;;
54125;SDS011;40360;52.992;6.796;2023-03-31T15:40:00;8.90;;;2.60;;
54125;SDS011;40360;52.992;6.796;2023-03-31T15:42:31;8.82;;;2.42;;
54125;SDS011;40360;52.992;6.796;2023-03-31T15:47:48;7.57;;;2.17;;
54125;SDS011;40360;52.992;6.796;2023-03-31T15:50:16;8.18;;;2.70;;
54125;SDS011;40360;52.992;6.796;2023-03-31T15:52:49;9.70;;;2.22;;
54125;SDS011;40360;52.992;6.796;2023-03-31T15:57:55;10.10;;;2.40;;
54125;SDS011;40360;52.992;6.796;2023-03-31T16:01:05;6.10;;;1.75;;
54125;SDS011;40360;52.992;6.796;2023-03-31T16:05:57;10.07;;;3.28;;
54125;SDS011;40360;52.992;6.796;2023-03-31T16:08:28;4.95;;;2.00;;
54125;SDS011;40360;52.992;6.796;2023-03-31T16:11:06;13.90;;;3.00;;
54125;SDS011;40360;52.992;6.796;2023-03-31T16:13:36;12.65;;;3.35;;
54125;SDS011;40360;52.992;6.796;2023-03-31T16:16:07;9.10;;;2.72;;
54125;SDS011;40360;52.992;6.796;2023-03-31T16:18:35;10.98;;;2.58;;
54125;SDS011;40360;52.992;6.796;2023-03-31T16:21:04;9.05;;;3.78;;
54125;SDS011;40360;52.992;6.796;2023-03-31T16:23:33;13.68;;;4.40;;
54125;SDS011;40360;52.992;6.796;2023-03-31T16:26:02;9.85;;;4.15;;
54125;SDS011;40360;52.992;6.796;2023-03-31T16:28:30;13.13;;;6.55;;
54125;SDS011;40360;52.992;6.796;2023-03-31T16:30:58;9.05;;;4.38;;
54125;SDS011;40360;52.992;6.796;2023-03-31T16:33:26;9.18;;;2.50;;
54125;SDS011;40360;52.992;6.796;2023-03-31T16:35:55;9.75;;;2.28;;
54125;SDS011;40360;52.992;6.796;2023-03-31T16:38:23;17.02;;;5.43;;
54125;SDS011;40360;52.992;6.796;2023-03-31T16:40:51;9.77;;;3.38;;
54125;SDS011;40360;52.992;6.796;2023-03-31T16:43:20;12.80;;;4.20;;
54125;SDS011;40360;52.992;6.796;2023-03-31T16:45:53;7.72;;;3.08;;
54125;SDS011;40360;52.992;6.796;2023-03-31T16:48:21;12.70;;;3.55;;
54125;SDS011;40360;52.992;6.796;2023-03-31T16:50:49;6.78;;;2.42;;
54125;SDS011;40360;52.992;6.796;2023-03-31T16:53:18;16.45;;;3.22;;
54125;SDS011;40360;52.992;6.796;2023-03-31T16:55:46;9.00;;;3.72;;
54125;SDS011;40360;52.992;6.796;2023-03-31T16:58:12;10.48;;;3.80;;
54125;SDS011;40360;52.992;6.796;2023-03-31T17:00:38;11.93;;;2.80;;
54125;SDS011;40360;52.992;6.796;2023-03-31T17:03:05;9.77;;;2.80;;
54125;SDS011;40360;52.992;6.796;2023-03-31T17:05:36;10.10;;;2.72;;
54125;SDS011;40360;52.992;6.796;2023-03-31T17:08:02;9.80;;;2.95;;
54125;SDS011;40360;52.992;6.796;2023-03-31T17:10:28;7.57;;;2.67;;
54125;SDS011;40360;52.992;6.796;2023-03-31T17:12:54;7.43;;;2.42;;
54125;SDS011;40360;52.992;6.796;2023-03-31T17:15:19;6.15;;;2.53;;
54125;SDS011;40360;52.992;6.796;2023-03-31T17:17:46;12.13;;;2.63;;
54125;SDS011;40360;52.992;6.796;2023-03-31T17:20:12;8.35;;;2.15;;
54125;SDS011;40360;52.992;6.796;2023-03-31T17:22:37;6.78;;;3.20;;
54125;SDS011;40360;52.992;6.796;2023-03-31T17:25:04;8.52;;;2.47;;
54125;SDS011;40360;52.992;6.796;2023-03-31T17:27:31;11.05;;;2.55;;
54125;SDS011;40360;52.992;6.796;2023-03-31T17:29:57;7.80;;;3.00;;
54125;SDS011;40360;52.992;6.796;2023-03-31T17:32:23;11.93;;;3.72;;
54125;SDS011;40360;52.992;6.796;2023-03-31T17:34:49;10.50;;;3.85;;
54125;SDS011;40360;52.992;6.796;2023-03-31T17:37:15;9.15;;;2.70;;
54125;SDS011;40360;52.992;6.796;2023-03-31T17:39:42;8.05;;;3.75;;
54125;SDS011;40360;52.992;6.796;2023-03-31T17:42:09;7.55;;;3.40;;
54125;SDS011;40360;52.992;6.796;2023-03-31T17:44:35;10.38;;;3.30;;
54125;SDS011;40360;52.992;6.796;2023-03-31T17:47:02;10.80;;;5.50;;
54125;SDS011;40360;52.992;6.796;2023-03-31T17:49:28;9.77;;;5.05;;
54125;SDS011;40360;52.992;6.796;2023-03-31T17:51:54;6.07;;;3.33;;
54125;SDS011;40360;52.992;6.796;2023-03-31T17:54:19;7.68;;;3.20;;
54125;SDS011;40360;52.992;6.796;2023-03-31T17:56:45;8.85;;;3.30;;
54125;SDS011;40360;52.992;6.796;2023-03-31T17:59:14;6.95;;;2.65;;
54125;SDS011;40360;52.992;6.796;2023-03-31T18:01:41;8.63;;;3.28;;
54125;SDS011;40360;52.992;6.796;2023-03-31T18:04:06;7.00;;;3.10;;
54125;SDS011;40360;52.992;6.796;2023-03-31T18:06:33;10.15;;;3.10;;
54125;SDS011;40360;52.992;6.796;2023-03-31T18:08:58;5.95;;;2.50;;
54125;SDS011;40360;52.992;6.796;2023-03-31T18:11:24;11.30;;;4.28;;
54125;SDS011;40360;52.992;6.796;2023-03-31T18:13:51;5.93;;;2.83;;